sensor_id;sensor_type;location;lat;lon;timestamp;P1;durP1;ratioP1;P2;durP2;ratioP2
20731;SDS011;10527;52.124;5.196;2023-07-09T00:02:17;8.77;;;4.18;;
20731;SDS011;10527;52.124;5.196;2023-07-09T00:04:45;7.72;;;4.50;;
20731;SDS011;10527;52.124;5.196;2023-07-09T00:09:57;8.25;;;4.70;;
20731;SDS011;10527;52.124;5.196;2023-07-09T00:12:26;7.07;;;4.70;;
20731;SDS011;10527;52.124;5.196;2023-07-09T00:14:53;6.15;;;4.55;;
20731;SDS011;10527;52.124;5.196;2023-07-09T00:17:21;6.63;;;4.32;;
20731;SDS011;10527;52.124;5.196;2023-07-09T00:19:52;7.03;;;4.43;;
20731;SDS011;10527;52.124;5.196;2023-07-09T00:22:19;5.65;;;4.45;;
20731;SDS011;10527;52.124;5.196;2023-07-09T00:24:48;6.70;;;4.38;;
20731;SDS011;10527;52.124;5.196;2023-07-09T00:27:18;8.68;;;4.60;;
20731;SDS011;10527;52.124;5.196;2023-07-09T00:29:47;5.80;;;4.60;;
20731;SDS011;10527;52.124;5.196;2023-07-09T00:32:15;11.20;;;5.07;;
20731;SDS011;10527;52.124;5.196;2023-07-09T00:34:47;6.63;;;4.85;;
20731;SDS011;10527;52.124;5.196;2023-07-09T00:37:18;6.07;;;4.60;;
20731;SDS011;10527;52.124;5.196;2023-07-09T00:39:51;6.03;;;4.25;;
20731;SDS011;10527;52.124;5.196;2023-07-09T00:42:19;6.38;;;4.68;;
20731;SDS011;10527;52.124;5.196;2023-07-09T00:44:50;8.18;;;4.75;;
20731;SDS011;10527;52.124;5.196;2023-07-09T00:47:31;7.82;;;4.82;;
20731;SDS011;10527;52.124;5.196;2023-07-09T00:52:53;7.55;;;4.25;;
20731;SDS011;10527;52.124;5.196;2023-07-09T00:55:26;6.68;;;4.90;;
20731;SDS011;10527;52.124;5.196;2023-07-09T00:57:59;5.70;;;4.30;;
20731;SDS011;10527;52.124;5.196;2023-07-09T01:00:39;6.13;;;4.80;;
20731;SDS011;10527;52.124;5.196;2023-07-09T01:06:04;5.53;;;4.28;;
20731;SDS011;10527;52.124;5.196;2023-07-09T01:08:32;7.78;;;5.13;;
20731;SDS011;10527;52.124;5.196;2023-07-09T01:11:03;5.78;;;4.53;;
20731;SDS011;10527;52.124;5.196;2023-07-09T01:13:34;7.07;;;4.35;;
20731;SDS011;10527;52.124;5.196;2023-07-09T01:16:01;9.88;;;4.95;;
20731;SDS011;10527;52.124;5.196;2023-07-09T01:18:29;7.63;;;4.70;;
20731;SDS011;10527;52.124;5.196;2023-07-09T01:21:01;6.32;;;4.45;;
20731;SDS011;10527;52.124;5.196;2023-07-09T01:23:33;7.00;;;4.70;;
20731;SDS011;10527;52.124;5.196;2023-07-09T01:26:00;7.38;;;4.05;;
20731;SDS011;10527;52.124;5.196;2023-07-09T01:28:28;6.32;;;4.43;;
20731;SDS011;10527;52.124;5.196;2023-07-09T01:30:55;6.57;;;4.32;;
20731;SDS011;10527;52.124;5.196;2023-07-09T01:33:22;6.80;;;4.80;;
20731;SDS011;10527;52.124;5.196;2023-07-09T01:35:49;5.90;;;4.55;;
20731;SDS011;10527;52.124;5.196;2023-07-09T01:38:19;13.70;;;4.70;;
20731;SDS011;10527;52.124;5.196;2023-07-09T01:40:46;8.10;;;4.75;;
20731;SDS011;10527;52.124;5.196;2023-07-09T01:43:13;6.63;;;4.47;;
20731;SDS011;10527;52.124;5.196;2023-07-09T01:45:40;6.47;;;4.10;;
20731;SDS011;10527;52.124;5.196;2023-07-09T01:48:07;7.20;;;4.70;;
20731;SDS011;10527;52.124;5.196;2023-07-09T01:50:42;6.15;;;4.60;;
20731;SDS011;10527;52.124;5.196;2023-07-09T01:53:11;5.95;;;4.32;;
20731;SDS011;10527;52.124;5.196;2023-07-09T01:55:44;7.03;;;4.38;;
20731;SDS011;10527;52.124;5.196;2023-07-09T01:58:11;5.72;;;4.63;;
20731;SDS011;10527;52.124;5.196;2023-07-09T02:00:38;7.90;;;4.68;;
20731;SDS011;10527;52.124;5.196;2023-07-09T02:03:07;6.18;;;4.30;;
20731;SDS011;10527;52.124;5.196;2023-07-09T02:05:35;6.30;;;4.32;;
20731;SDS011;10527;52.124;5.196;2023-07-09T02:08:03;7.18;;;4.60;;
20731;SDS011;10527;52.124;5.196;2023-07-09T02:10:30;6.43;;;4.40;;
20731;SDS011;10527;52.124;5.196;2023-07-09T02:12:57;7.28;;;4.55;;
20731;SDS011;10527;52.124;5.196;2023-07-09T02:15:24;6.32;;;4.38;;
20731;SDS011;10527;52.124;5.196;2023-07-09T02:17:51;4.75;;;4.10;;
20731;SDS011;10527;52.124;5.196;2023-07-09T02:20:18;6.35;;;4.72;;
20731;SDS011;10527;52.124;5.196;2023-07-09T02:22:47;6.80;;;4.57;;
20731;SDS011;10527;52.124;5.196;2023-07-09T02:25:17;9.13;;;5.22;;
20731;SDS011;10527;52.124;5.196;2023-07-09T02:27:44;5.93;;;4.32;;
20731;SDS011;10527;52.124;5.196;2023-07-09T02:30:11;7.18;;;4.80;;
20731;SDS011;10527;52.124;5.196;2023-07-09T02:32:38;8.15;;;4.70;;
20731;SDS011;10527;52.124;5.196;2023-07-09T02:35:06;6.35;;;4.80;;
20731;SDS011;10527;52.124;5.196;2023-07-09T02:37:34;7.55;;;4.60;;
20731;SDS011;10527;52.124;5.196;2023-07-09T02:40:01;5.93;;;4.15;;
20731;SDS011;10527;52.124;5.196;2023-07-09T02:42:35;6.85;;;4.97;;
20731;SDS011;10527;52.124;5.196;2023-07-09T02:45:02;7.10;;;4.72;;
20731;SDS011;10527;52.124;5.196;2023-07-09T02:47:30;5.43;;;4.28;;
20731;SDS011;10527;52.124;5.196;2023-07-09T02:49:58;5.95;;;4.63;;
20731;SDS011;10527;52.124;5.196;2023-07-09T02:52:24;6.30;;;4.55;;
20731;SDS011;10527;52.124;5.196;2023-07-09T02:54:53;8.63;;;4.95;;
20731;SDS011;10527;52.124;5.196;2023-07-09T02:57:20;6.55;;;4.70;;
20731;SDS011;10527;52.124;5.196;2023-07-09T02:59:46;5.47;;;4.40;;
20731;SDS011;10527;52.124;5.196;2023-07-09T03:02:13;6.35;;;4.40;;
20731;SDS011;10527;52.124;5.196;2023-07-09T03:04:40;7.25;;;4.75;;
20731;SDS011;10527;52.124;5.196;2023-07-09T03:07:07;7.03;;;4.60;;
20731;SDS011;10527;52.124;5.196;2023-07-09T03:09:34;7.38;;;4.63;;
20731;SDS011;10527;52.124;5.196;2023-07-09T03:12:01;8.90;;;5.28;;
20731;SDS011;10527;52.124;5.196;2023-07-09T03:14:27;6.93;;;4.45;;
20731;SDS011;10527;52.124;5.196;2023-07-09T03:16:54;6.22;;;4.60;;
20731;SDS011;10527;52.124;5.196;2023-07-09T03:19:22;8.73;;;5.25;;
20731;SDS011;10527;52.124;5.196;2023-07-09T03:21:49;8.55;;;5.65;;
20731;SDS011;10527;52.124;5.196;2023-07-09T03:24:16;5.97;;;4.90;;
20731;SDS011;10527;52.124;5.196;2023-07-09T03:26:45;7.45;;;5.18;;
20731;SDS011;10527;52.124;5.196;2023-07-09T03:29:13;7.18;;;5.38;;
20731;SDS011;10527;52.124;5.196;2023-07-09T03:31:41;7.35;;;4.97;;
20731;SDS011;10527;52.124;5.196;2023-07-09T03:34:08;6.60;;;5.30;;
20731;SDS011;10527;52.124;5.196;2023-07-09T03:36:34;5.70;;;4.53;;
20731;SDS011;10527;52.124;5.196;2023-07-09T03:39:05;5.65;;;4.93;;
20731;SDS011;10527;52.124;5.196;2023-07-09T03:41:33;7.68;;;4.82;;
20731;SDS011;10527;52.124;5.196;2023-07-09T03:44:01;5.70;;;4.85;;
20731;SDS011;10527;52.124;5.196;2023-07-09T03:46:29;8.88;;;4.72;;
20731;SDS011;10527;52.124;5.196;2023-07-09T03:48:57;5.90;;;4.50;;
20731;SDS011;10527;52.124;5.196;2023-07-09T03:51:26;10.65;;;6.25;;
20731;SDS011;10527;52.124;5.196;2023-07-09T03:53:53;7.38;;;4.95;;
20731;SDS011;10527;52.124;5.196;2023-07-09T03:56:20;8.40;;;5.10;;
20731;SDS011;10527;52.124;5.196;2023-07-09T03:58:47;5.60;;;4.88;;
20731;SDS011;10527;52.124;5.196;2023-07-09T04:01:13;7.50;;;5.18;;
20731;SDS011;10527;52.124;5.196;2023-07-09T04:03:42;6.05;;;4.45;;
20731;SDS011;10527;52.124;5.196;2023-07-09T04:06:09;6.28;;;4.35;;
20731;SDS011;10527;52.124;5.196;2023-07-09T04:08:36;5.68;;;4.50;;
20731;SDS011;10527;52.124;5.196;2023-07-09T04:11:03;5.72;;;4.63;;
20731;SDS011;10527;52.124;5.196;2023-07-09T04:13:31;7.65;;;5.20;;
20731;SDS011;10527;52.124;5.196;2023-07-09T04:15:59;8.00;;;4.85;;
20731;SDS011;10527;52.124;5.196;2023-07-09T04:18:26;6.40;;;4.53;;
20731;SDS011;10527;52.124;5.196;2023-07-09T04:20:53;10.75;;;5.10;;
20731;SDS011;10527;52.124;5.196;2023-07-09T04:23:20;6.50;;;4.78;;
20731;SDS011;10527;52.124;5.196;2023-07-09T04:25:47;6.15;;;4.80;;
20731;SDS011;10527;52.124;5.196;2023-07-09T04:28:14;6.10;;;4.57;;
20731;SDS011;10527;52.124;5.196;2023-07-09T04:30:48;7.07;;;5.30;;
20731;SDS011;10527;52.124;5.196;2023-07-09T04:33:18;6.60;;;4.72;;
20731;SDS011;10527;52.124;5.196;2023-07-09T04:35:47;7.30;;;4.90;;
20731;SDS011;10527;52.124;5.196;2023-07-09T04:38:15;6.93;;;5.15;;
20731;SDS011;10527;52.124;5.196;2023-07-09T04:40:43;8.73;;;6.50;;
20731;SDS011;10527;52.124;5.196;2023-07-09T04:43:11;6.38;;;4.80;;
20731;SDS011;10527;52.124;5.196;2023-07-09T04:45:39;7.00;;;5.05;;
20731;SDS011;10527;52.124;5.196;2023-07-09T04:48:06;6.03;;;4.78;;
20731;SDS011;10527;52.124;5.196;2023-07-09T04:50:34;6.82;;;5.55;;
20731;SDS011;10527;52.124;5.196;2023-07-09T04:53:01;8.85;;;5.70;;
20731;SDS011;10527;52.124;5.196;2023-07-09T04:55:28;7.18;;;5.20;;
20731;SDS011;10527;52.124;5.196;2023-07-09T04:57:54;7.93;;;5.40;;
20731;SDS011;10527;52.124;5.196;2023-07-09T05:00:21;5.82;;;4.88;;
20731;SDS011;10527;52.124;5.196;2023-07-09T05:02:48;6.65;;;5.10;;
20731;SDS011;10527;52.124;5.196;2023-07-09T05:05:16;7.90;;;4.85;;
20731;SDS011;10527;52.124;5.196;2023-07-09T05:07:43;7.57;;;4.65;;
20731;SDS011;10527;52.124;5.196;2023-07-09T05:10:10;7.22;;;5.05;;
20731;SDS011;10527;52.124;5.196;2023-07-09T05:12:46;8.48;;;5.50;;
20731;SDS011;10527;52.124;5.196;2023-07-09T05:15:22;8.40;;;6.70;;
20731;SDS011;10527;52.124;5.196;2023-07-09T05:17:51;7.65;;;6.07;;
20731;SDS011;10527;52.124;5.196;2023-07-09T05:20:18;8.40;;;6.95;;
20731;SDS011;10527;52.124;5.196;2023-07-09T05:22:45;7.70;;;6.20;;
20731;SDS011;10527;52.124;5.196;2023-07-09T05:25:12;7.50;;;6.15;;
20731;SDS011;10527;52.124;5.196;2023-07-09T05:27:38;6.97;;;5.53;;
20731;SDS011;10527;52.124;5.196;2023-07-09T05:30:06;7.55;;;5.22;;
20731;SDS011;10527;52.124;5.196;2023-07-09T05:32:33;8.23;;;5.00;;
20731;SDS011;10527;52.124;5.196;2023-07-09T05:35:03;8.82;;;5.45;;
20731;SDS011;10527;52.124;5.196;2023-07-09T05:37:30;7.70;;;5.45;;
20731;SDS011;10527;52.124;5.196;2023-07-09T05:39:57;5.43;;;4.53;;
20731;SDS011;10527;52.124;5.196;2023-07-09T05:42:24;6.57;;;5.22;;
20731;SDS011;10527;52.124;5.196;2023-07-09T05:44:52;9.73;;;6.03;;
20731;SDS011;10527;52.124;5.196;2023-07-09T05:47:19;8.15;;;5.50;;
20731;SDS011;10527;52.124;5.196;2023-07-09T05:49:46;7.45;;;4.65;;
20731;SDS011;10527;52.124;5.196;2023-07-09T05:52:16;9.55;;;5.13;;
20731;SDS011;10527;52.124;5.196;2023-07-09T05:54:44;9.98;;;5.80;;
20731;SDS011;10527;52.124;5.196;2023-07-09T05:57:11;7.57;;;5.72;;
20731;SDS011;10527;52.124;5.196;2023-07-09T05:59:38;9.63;;;6.55;;
20731;SDS011;10527;52.124;5.196;2023-07-09T06:02:08;9.00;;;5.60;;
20731;SDS011;10527;52.124;5.196;2023-07-09T06:04:38;8.63;;;6.40;;
20731;SDS011;10527;52.124;5.196;2023-07-09T06:07:05;8.43;;;5.05;;
20731;SDS011;10527;52.124;5.196;2023-07-09T06:09:33;10.15;;;7.38;;
20731;SDS011;10527;52.124;5.196;2023-07-09T06:12:00;8.98;;;6.15;;
20731;SDS011;10527;52.124;5.196;2023-07-09T06:14:29;8.55;;;6.40;;
20731;SDS011;10527;52.124;5.196;2023-07-09T06:16:58;8.88;;;6.03;;
20731;SDS011;10527;52.124;5.196;2023-07-09T06:19:26;10.55;;;5.93;;
20731;SDS011;10527;52.124;5.196;2023-07-09T06:21:53;7.50;;;5.55;;
20731;SDS011;10527;52.124;5.196;2023-07-09T06:24:20;7.70;;;5.82;;
20731;SDS011;10527;52.124;5.196;2023-07-09T06:26:47;9.70;;;6.43;;
20731;SDS011;10527;52.124;5.196;2023-07-09T06:29:14;7.75;;;6.22;;
20731;SDS011;10527;52.124;5.196;2023-07-09T06:31:41;8.68;;;5.88;;
20731;SDS011;10527;52.124;5.196;2023-07-09T06:34:09;8.40;;;6.22;;
20731;SDS011;10527;52.124;5.196;2023-07-09T06:36:36;8.45;;;6.13;;
20731;SDS011;10527;52.124;5.196;2023-07-09T06:39:03;11.13;;;7.10;;
20731;SDS011;10527;52.124;5.196;2023-07-09T06:41:31;9.50;;;7.03;;
20731;SDS011;10527;52.124;5.196;2023-07-09T06:44:08;8.90;;;6.20;;
20731;SDS011;10527;52.124;5.196;2023-07-09T06:46:35;12.18;;;6.60;;
20731;SDS011;10527;52.124;5.196;2023-07-09T06:49:03;8.88;;;5.60;;
20731;SDS011;10527;52.124;5.196;2023-07-09T06:51:33;8.45;;;6.55;;
20731;SDS011;10527;52.124;5.196;2023-07-09T06:54:00;8.57;;;5.75;;
20731;SDS011;10527;52.124;5.196;2023-07-09T06:56:27;10.32;;;5.57;;
20731;SDS011;10527;52.124;5.196;2023-07-09T06:58:54;9.65;;;5.85;;
20731;SDS011;10527;52.124;5.196;2023-07-09T07:01:21;9.93;;;5.90;;
20731;SDS011;10527;52.124;5.196;2023-07-09T07:03:48;7.78;;;5.25;;
20731;SDS011;10527;52.124;5.196;2023-07-09T07:06:15;8.02;;;5.32;;
20731;SDS011;10527;52.124;5.196;2023-07-09T07:08:43;9.18;;;5.88;;
20731;SDS011;10527;52.124;5.196;2023-07-09T07:11:10;7.93;;;5.47;;
20731;SDS011;10527;52.124;5.196;2023-07-09T07:13:38;7.40;;;5.30;;
20731;SDS011;10527;52.124;5.196;2023-07-09T07:16:08;7.65;;;5.38;;
20731;SDS011;10527;52.124;5.196;2023-07-09T07:18:38;8.77;;;5.43;;
20731;SDS011;10527;52.124;5.196;2023-07-09T07:21:05;8.40;;;5.05;;
20731;SDS011;10527;52.124;5.196;2023-07-09T07:23:33;8.35;;;5.55;;
20731;SDS011;10527;52.124;5.196;2023-07-09T07:26:00;6.28;;;4.95;;
20731;SDS011;10527;52.124;5.196;2023-07-09T07:28:27;8.48;;;5.53;;
20731;SDS011;10527;52.124;5.196;2023-07-09T07:31:01;9.43;;;6.15;;
20731;SDS011;10527;52.124;5.196;2023-07-09T07:33:31;9.20;;;6.13;;
20731;SDS011;10527;52.124;5.196;2023-07-09T07:35:58;10.80;;;6.85;;
20731;SDS011;10527;52.124;5.196;2023-07-09T07:38:28;10.07;;;7.38;;
20731;SDS011;10527;52.124;5.196;2023-07-09T07:40:55;10.05;;;7.00;;
20731;SDS011;10527;52.124;5.196;2023-07-09T07:43:22;8.80;;;6.78;;
20731;SDS011;10527;52.124;5.196;2023-07-09T07:45:49;10.60;;;7.45;;
20731;SDS011;10527;52.124;5.196;2023-07-09T07:48:16;10.70;;;6.82;;
20731;SDS011;10527;52.124;5.196;2023-07-09T07:50:43;9.43;;;8.00;;
20731;SDS011;10527;52.124;5.196;2023-07-09T07:53:12;10.68;;;8.10;;
20731;SDS011;10527;52.124;5.196;2023-07-09T07:55:39;10.88;;;7.53;;
20731;SDS011;10527;52.124;5.196;2023-07-09T07:58:11;13.20;;;7.78;;
20731;SDS011;10527;52.124;5.196;2023-07-09T08:00:39;11.75;;;8.85;;
20731;SDS011;10527;52.124;5.196;2023-07-09T08:03:06;14.02;;;8.52;;
20731;SDS011;10527;52.124;5.196;2023-07-09T08:05:33;9.13;;;7.95;;
20731;SDS011;10527;52.124;5.196;2023-07-09T08:08:00;11.35;;;8.57;;
20731;SDS011;10527;52.124;5.196;2023-07-09T08:10:27;12.05;;;8.25;;
20731;SDS011;10527;52.124;5.196;2023-07-09T08:12:54;14.27;;;8.38;;
20731;SDS011;10527;52.124;5.196;2023-07-09T08:15:27;10.60;;;7.68;;
20731;SDS011;10527;52.124;5.196;2023-07-09T08:17:54;11.20;;;7.70;;
20731;SDS011;10527;52.124;5.196;2023-07-09T08:20:21;8.18;;;6.50;;
20731;SDS011;10527;52.124;5.196;2023-07-09T08:22:48;9.90;;;6.47;;
20731;SDS011;10527;52.124;5.196;2023-07-09T08:25:15;8.02;;;6.18;;
20731;SDS011;10527;52.124;5.196;2023-07-09T08:27:42;10.45;;;6.13;;
20731;SDS011;10527;52.124;5.196;2023-07-09T08:30:09;9.13;;;5.90;;
20731;SDS011;10527;52.124;5.196;2023-07-09T08:32:36;10.23;;;6.07;;
20731;SDS011;10527;52.124;5.196;2023-07-09T08:35:03;10.15;;;6.72;;
20731;SDS011;10527;52.124;5.196;2023-07-09T08:37:50;10.55;;;6.10;;
20731;SDS011;10527;52.124;5.196;2023-07-09T08:40:17;8.48;;;5.90;;
20731;SDS011;10527;52.124;5.196;2023-07-09T08:42:46;8.73;;;6.20;;
20731;SDS011;10527;52.124;5.196;2023-07-09T08:45:34;7.22;;;6.03;;
20731;SDS011;10527;52.124;5.196;2023-07-09T08:48:14;7.70;;;5.82;;
20731;SDS011;10527;52.124;5.196;2023-07-09T08:51:10;11.52;;;5.97;;
20731;SDS011;10527;52.124;5.196;2023-07-09T08:56:23;6.55;;;5.60;;
20731;SDS011;10527;52.124;5.196;2023-07-09T08:58:53;7.22;;;5.93;;
20731;SDS011;10527;52.124;5.196;2023-07-09T09:04:19;7.05;;;5.50;;
20731;SDS011;10527;52.124;5.196;2023-07-09T09:07:13;10.60;;;5.93;;
20731;SDS011;10527;52.124;5.196;2023-07-09T09:10:59;7.85;;;5.78;;
20731;SDS011;10527;52.124;5.196;2023-07-09T09:13:15;8.32;;;5.00;;
20731;SDS011;10527;52.124;5.196;2023-07-09T09:15:47;9.88;;;5.78;;
20731;SDS011;10527;52.124;5.196;2023-07-09T09:18:22;7.35;;;5.07;;
20731;SDS011;10527;52.124;5.196;2023-07-09T09:20:54;7.82;;;6.00;;
20731;SDS011;10527;52.124;5.196;2023-07-09T09:23:44;8.73;;;6.28;;
20731;SDS011;10527;52.124;5.196;2023-07-09T09:26:29;8.15;;;6.30;;
20731;SDS011;10527;52.124;5.196;2023-07-09T09:29:00;8.63;;;6.70;;
20731;SDS011;10527;52.124;5.196;2023-07-09T09:31:37;8.70;;;6.20;;
20731;SDS011;10527;52.124;5.196;2023-07-09T09:34:04;8.73;;;6.40;;
20731;SDS011;10527;52.124;5.196;2023-07-09T09:36:31;7.28;;;5.57;;
20731;SDS011;10527;52.124;5.196;2023-07-09T09:39:03;7.97;;;6.32;;
20731;SDS011;10527;52.124;5.196;2023-07-09T09:41:36;10.52;;;7.53;;
20731;SDS011;10527;52.124;5.196;2023-07-09T09:44:05;10.10;;;6.03;;
20731;SDS011;10527;52.124;5.196;2023-07-09T09:46:45;10.13;;;6.53;;
20731;SDS011;10527;52.124;5.196;2023-07-09T09:49:18;9.23;;;6.65;;
20731;SDS011;10527;52.124;5.196;2023-07-09T09:51:46;9.25;;;6.50;;
20731;SDS011;10527;52.124;5.196;2023-07-09T09:54:16;6.82;;;5.60;;
20731;SDS011;10527;52.124;5.196;2023-07-09T09:56:48;8.32;;;6.32;;
20731;SDS011;10527;52.124;5.196;2023-07-09T09:59:30;10.10;;;7.20;;
20731;SDS011;10527;52.124;5.196;2023-07-09T10:02:16;9.25;;;6.75;;
20731;SDS011;10527;52.124;5.196;2023-07-09T10:04:52;10.52;;;7.38;;
20731;SDS011;10527;52.124;5.196;2023-07-09T10:07:21;9.40;;;6.03;;
20731;SDS011;10527;52.124;5.196;2023-07-09T10:10:12;9.40;;;6.28;;
20731;SDS011;10527;52.124;5.196;2023-07-09T10:12:52;9.25;;;6.97;;
20731;SDS011;10527;52.124;5.196;2023-07-09T10:18:59;11.15;;;7.82;;
20731;SDS011;10527;52.124;5.196;2023-07-09T10:22:04;11.02;;;6.75;;
20731;SDS011;10527;52.124;5.196;2023-07-09T10:34:54;8.60;;;6.45;;
20731;SDS011;10527;52.124;5.196;2023-07-09T10:40:55;15.35;;;7.68;;
20731;SDS011;10527;52.124;5.196;2023-07-09T10:43:44;8.90;;;6.93;;
20731;SDS011;10527;52.124;5.196;2023-07-09T10:46:25;8.82;;;6.97;;
20731;SDS011;10527;52.124;5.196;2023-07-09T10:49:17;9.38;;;7.60;;
20731;SDS011;10527;52.124;5.196;2023-07-09T10:52:07;9.38;;;7.25;;
20731;SDS011;10527;52.124;5.196;2023-07-09T11:00:52;9.32;;;7.50;;
20731;SDS011;10527;52.124;5.196;2023-07-09T11:03:20;9.20;;;6.75;;
20731;SDS011;10527;52.124;5.196;2023-07-09T11:06:16;8.73;;;6.28;;
20731;SDS011;10527;52.124;5.196;2023-07-09T11:08:56;7.40;;;6.47;;
20731;SDS011;10527;52.124;5.196;2023-07-09T11:14:34;6.50;;;5.78;;
20731;SDS011;10527;52.124;5.196;2023-07-09T11:17:17;7.53;;;6.68;;
20731;SDS011;10527;52.124;5.196;2023-07-09T11:19:48;10.30;;;8.05;;
20731;SDS011;10527;52.124;5.196;2023-07-09T11:22:35;10.57;;;6.78;;
20731;SDS011;10527;52.124;5.196;2023-07-09T11:25:15;9.80;;;7.30;;
20731;SDS011;10527;52.124;5.196;2023-07-09T11:28:02;9.90;;;7.82;;
20731;SDS011;10527;52.124;5.196;2023-07-09T11:30:33;8.38;;;7.05;;
20731;SDS011;10527;52.124;5.196;2023-07-09T11:33:43;10.02;;;7.13;;
20731;SDS011;10527;52.124;5.196;2023-07-09T11:36:25;11.07;;;7.03;;
20731;SDS011;10527;52.124;5.196;2023-07-09T11:38:55;21.00;;;7.70;;
20731;SDS011;10527;52.124;5.196;2023-07-09T11:44:09;8.80;;;5.93;;
20731;SDS011;10527;52.124;5.196;2023-07-09T11:47:03;8.13;;;5.60;;
20731;SDS011;10527;52.124;5.196;2023-07-09T11:50:04;7.50;;;6.22;;
20731;SDS011;10527;52.124;5.196;2023-07-09T11:53:34;7.22;;;5.72;;
20731;SDS011;10527;52.124;5.196;2023-07-09T11:55:49;6.15;;;5.32;;
20731;SDS011;10527;52.124;5.196;2023-07-09T11:58:16;7.10;;;5.53;;
20731;SDS011;10527;52.124;5.196;2023-07-09T12:00:46;5.38;;;4.30;;
20731;SDS011;10527;52.124;5.196;2023-07-09T12:03:20;6.38;;;4.53;;
20731;SDS011;10527;52.124;5.196;2023-07-09T12:06:01;4.47;;;3.83;;
20731;SDS011;10527;52.124;5.196;2023-07-09T12:08:55;10.65;;;4.40;;
20731;SDS011;10527;52.124;5.196;2023-07-09T12:11:33;5.07;;;4.53;;
20731;SDS011;10527;52.124;5.196;2023-07-09T12:14:05;5.60;;;3.97;;
20731;SDS011;10527;52.124;5.196;2023-07-09T12:16:39;7.18;;;4.95;;
20731;SDS011;10527;52.124;5.196;2023-07-09T12:19:12;6.68;;;4.35;;
20731;SDS011;10527;52.124;5.196;2023-07-09T12:21:43;5.47;;;4.18;;
20731;SDS011;10527;52.124;5.196;2023-07-09T12:24:30;7.70;;;4.25;;
20731;SDS011;10527;52.124;5.196;2023-07-09T12:27:23;6.60;;;4.68;;
20731;SDS011;10527;52.124;5.196;2023-07-09T12:29:54;6.13;;;4.22;;
20731;SDS011;10527;52.124;5.196;2023-07-09T12:32:23;6.40;;;3.80;;
20731;SDS011;10527;52.124;5.196;2023-07-09T12:34:54;5.45;;;3.45;;
20731;SDS011;10527;52.124;5.196;2023-07-09T12:37:23;3.20;;;2.60;;
20731;SDS011;10527;52.124;5.196;2023-07-09T12:39:55;7.25;;;2.92;;
20731;SDS011;10527;52.124;5.196;2023-07-09T12:42:31;4.30;;;3.05;;
20731;SDS011;10527;52.124;5.196;2023-07-09T12:45:03;3.55;;;2.30;;
20731;SDS011;10527;52.124;5.196;2023-07-09T12:47:34;3.30;;;2.50;;
20731;SDS011;10527;52.124;5.196;2023-07-09T12:50:03;8.50;;;2.65;;
20731;SDS011;10527;52.124;5.196;2023-07-09T12:52:47;5.60;;;2.85;;
20731;SDS011;10527;52.124;5.196;2023-07-09T12:55:19;6.03;;;3.13;;
20731;SDS011;10527;52.124;5.196;2023-07-09T12:58:03;4.57;;;2.42;;
20731;SDS011;10527;52.124;5.196;2023-07-09T13:00:36;3.75;;;3.20;;
20731;SDS011;10527;52.124;5.196;2023-07-09T13:03:03;5.45;;;3.15;;
20731;SDS011;10527;52.124;5.196;2023-07-09T13:05:50;5.00;;;2.78;;
20731;SDS011;10527;52.124;5.196;2023-07-09T13:08:20;3.83;;;2.78;;
20731;SDS011;10527;52.124;5.196;2023-07-09T13:10:48;6.63;;;3.85;;
20731;SDS011;10527;52.124;5.196;2023-07-09T13:13:18;4.75;;;3.33;;
20731;SDS011;10527;52.124;5.196;2023-07-09T13:15:52;4.82;;;3.13;;
20731;SDS011;10527;52.124;5.196;2023-07-09T13:18:25;5.00;;;3.30;;
20731;SDS011;10527;52.124;5.196;2023-07-09T13:20:53;5.35;;;3.28;;
20731;SDS011;10527;52.124;5.196;2023-07-09T13:25:54;4.50;;;3.08;;
20731;SDS011;10527;52.124;5.196;2023-07-09T13:28:28;9.60;;;2.75;;
20731;SDS011;10527;52.124;5.196;2023-07-09T13:30:58;4.65;;;2.40;;
20731;SDS011;10527;52.124;5.196;2023-07-09T13:33:35;5.05;;;1.80;;
20731;SDS011;10527;52.124;5.196;2023-07-09T13:36:03;4.65;;;2.10;;
20731;SDS011;10527;52.124;5.196;2023-07-09T13:38:33;4.78;;;1.80;;
20731;SDS011;10527;52.124;5.196;2023-07-09T13:41:16;4.07;;;1.70;;
20731;SDS011;10527;52.124;5.196;2023-07-09T13:43:48;5.15;;;2.60;;
20731;SDS011;10527;52.124;5.196;2023-07-09T13:46:15;5.78;;;1.95;;
20731;SDS011;10527;52.124;5.196;2023-07-09T13:48:43;7.43;;;2.55;;
20731;SDS011;10527;52.124;5.196;2023-07-09T13:51:18;8.35;;;2.75;;
20731;SDS011;10527;52.124;5.196;2023-07-09T13:53:48;3.08;;;1.90;;
20731;SDS011;10527;52.124;5.196;2023-07-09T13:56:20;4.95;;;2.22;;
20731;SDS011;10527;52.124;5.196;2023-07-09T13:58:48;3.28;;;2.15;;
20731;SDS011;10527;52.124;5.196;2023-07-09T14:01:17;7.95;;;2.60;;
20731;SDS011;10527;52.124;5.196;2023-07-09T14:03:49;5.43;;;2.95;;
20731;SDS011;10527;52.124;5.196;2023-07-09T14:06:26;6.88;;;2.63;;
20731;SDS011;10527;52.124;5.196;2023-07-09T14:08:53;7.63;;;2.97;;
20731;SDS011;10527;52.124;5.196;2023-07-09T14:11:20;5.00;;;2.47;;
20731;SDS011;10527;52.124;5.196;2023-07-09T14:13:48;7.05;;;2.40;;
20731;SDS011;10527;52.124;5.196;2023-07-09T14:16:15;4.20;;;2.35;;
20731;SDS011;10527;52.124;5.196;2023-07-09T14:18:42;7.30;;;2.78;;
20731;SDS011;10527;52.124;5.196;2023-07-09T14:21:13;5.13;;;2.80;;
20731;SDS011;10527;52.124;5.196;2023-07-09T14:23:45;6.90;;;2.78;;
20731;SDS011;10527;52.124;5.196;2023-07-09T14:26:12;6.30;;;2.78;;
20731;SDS011;10527;52.124;5.196;2023-07-09T14:28:39;1.95;;;1.67;;
20731;SDS011;10527;52.124;5.196;2023-07-09T14:31:22;5.38;;;2.30;;
20731;SDS011;10527;52.124;5.196;2023-07-09T14:33:53;7.32;;;2.80;;
20731;SDS011;10527;52.124;5.196;2023-07-09T14:36:23;3.95;;;2.15;;
20731;SDS011;10527;52.124;5.196;2023-07-09T14:38:50;6.35;;;2.30;;
20731;SDS011;10527;52.124;5.196;2023-07-09T14:41:21;8.20;;;2.67;;
20731;SDS011;10527;52.124;5.196;2023-07-09T14:43:53;5.07;;;1.88;;
20731;SDS011;10527;52.124;5.196;2023-07-09T14:46:23;7.00;;;2.42;;
20731;SDS011;10527;52.124;5.196;2023-07-09T14:48:50;6.00;;;2.70;;
20731;SDS011;10527;52.124;5.196;2023-07-09T14:51:17;13.98;;;3.92;;
20731;SDS011;10527;52.124;5.196;2023-07-09T14:53:44;9.52;;;4.28;;
20731;SDS011;10527;52.124;5.196;2023-07-09T14:56:13;8.98;;;3.50;;
20731;SDS011;10527;52.124;5.196;2023-07-09T14:58:41;7.55;;;4.20;;
20731;SDS011;10527;52.124;5.196;2023-07-09T15:01:12;10.02;;;3.88;;
20731;SDS011;10527;52.124;5.196;2023-07-09T15:03:41;10.15;;;3.85;;
20731;SDS011;10527;52.124;5.196;2023-07-09T15:06:08;9.00;;;3.85;;
20731;SDS011;10527;52.124;5.196;2023-07-09T15:08:35;12.82;;;4.82;;
20731;SDS011;10527;52.124;5.196;2023-07-09T15:11:03;10.35;;;4.97;;
20731;SDS011;10527;52.124;5.196;2023-07-09T15:13:34;12.27;;;5.10;;
20731;SDS011;10527;52.124;5.196;2023-07-09T15:16:03;9.40;;;5.25;;
20731;SDS011;10527;52.124;5.196;2023-07-09T15:18:32;7.55;;;5.43;;
20731;SDS011;10527;52.124;5.196;2023-07-09T15:21:03;8.20;;;5.70;;
20731;SDS011;10527;52.124;5.196;2023-07-09T15:23:31;9.43;;;5.72;;
20731;SDS011;10527;52.124;5.196;2023-07-09T15:26:11;10.75;;;6.03;;
20731;SDS011;10527;52.124;5.196;2023-07-09T15:28:42;12.02;;;5.75;;
20731;SDS011;10527;52.124;5.196;2023-07-09T15:31:10;11.55;;;5.68;;
20731;SDS011;10527;52.124;5.196;2023-07-09T15:33:37;9.20;;;5.10;;
20731;SDS011;10527;52.124;5.196;2023-07-09T15:36:10;12.30;;;8.98;;
20731;SDS011;10527;52.124;5.196;2023-07-09T15:38:38;9.48;;;6.55;;
20731;SDS011;10527;52.124;5.196;2023-07-09T15:41:12;7.63;;;5.75;;
20731;SDS011;10527;52.124;5.196;2023-07-09T15:43:44;8.95;;;5.78;;
20731;SDS011;10527;52.124;5.196;2023-07-09T15:46:15;10.80;;;5.45;;
20731;SDS011;10527;52.124;5.196;2023-07-09T15:48:46;8.05;;;4.80;;
20731;SDS011;10527;52.124;5.196;2023-07-09T15:51:16;12.02;;;5.70;;
20731;SDS011;10527;52.124;5.196;2023-07-09T15:53:43;8.52;;;5.20;;
20731;SDS011;10527;52.124;5.196;2023-07-09T15:56:16;6.75;;;3.90;;